West Cornwall, Connecticut
Current Conditions -  °F | °C
As of 2:52 PM on Friday 21 Nov 2014 (Local Time) from KOXC Reporting Station
Scattered Clouds Scattered Clouds  
Wind Chill: 22°   Ceiling: Unl
Heat Index: 32°   Visibility: 10mi
Dew Point:   Wind: 15mph
Humidity: 35%   Direction: 310°NW
Pressure: 30.27"   Gusts: 24mph
Location:  41.87°N, 73.36°W
Report Text: KOXC 211952Z 31013G21KT 10SM SCT050 00/M14 A3027
Loading
Personal Weather Stations






























Interactive Weather Map New forecast layout! Learn more

10-Day Weather Forecast

Advertisements
Track Severe Weather on mobile